createdAt,value
2023-06-07T00:00:38.349Z,74.69
2023-06-07T00:03:10.500Z,74.58
2023-06-07T00:05:40.315Z,75.15
2023-06-07T00:08:08.698Z,74.82
2023-06-07T00:10:38.162Z,75.00
2023-06-07T00:13:06.568Z,74.77
2023-06-07T00:15:34.292Z,74.47
2023-06-07T00:18:02.568Z,74.91
2023-06-07T00:20:31.925Z,74.75
2023-06-07T00:22:59.665Z,75.16
2023-06-07T00:25:28.618Z,74.94
2023-06-07T00:27:57.849Z,75.59
2023-06-07T00:30:25.647Z,75.30
2023-06-07T00:32:53.452Z,75.39
2023-06-07T00:35:21.239Z,75.61
2023-06-07T00:37:48.962Z,75.43
2023-06-07T00:40:17.106Z,75.91
2023-06-07T00:42:45.100Z,75.96
2023-06-07T00:45:14.431Z,75.84
2023-06-07T00:47:42.985Z,75.80
2023-06-07T00:50:12.433Z,76.23
2023-06-07T00:52:41.302Z,76.05
2023-06-07T00:55:11.050Z,75.70
2023-06-07T00:57:39.480Z,75.92
2023-06-07T01:00:11.110Z,76.03
2023-06-07T01:02:40.771Z,75.92
2023-06-07T01:05:09.416Z,75.76
2023-06-07T01:07:37.379Z,75.84
2023-06-07T01:10:07.525Z,75.68
2023-06-07T01:12:35.803Z,75.48
2023-06-07T01:15:05.355Z,74.84
2023-06-07T01:17:33.931Z,74.88
2023-06-07T01:20:06.455Z,75.05
2023-06-07T01:22:35.821Z,75.44
2023-06-07T01:25:05.757Z,74.79
2023-06-07T01:27:34.726Z,75.50
2023-06-07T01:30:03.484Z,74.90
2023-06-07T01:32:32.408Z,75.08
2023-06-07T01:35:00.630Z,75.53
2023-06-07T01:37:29.094Z,75.80
2023-06-07T01:39:58.632Z,76.52
2023-06-07T01:42:28.601Z,76.93
2023-06-07T01:44:57.311Z,76.96
2023-06-07T01:47:25.634Z,77.51
2023-06-07T01:49:53.582Z,77.17
2023-06-07T01:52:21.577Z,77.77
2023-06-07T01:54:50.163Z,78.13
2023-06-07T01:57:26.485Z,78.13
2023-06-07T02:00:08.826Z,78.70
2023-06-07T02:02:46.080Z,78.58
2023-06-07T02:05:18.954Z,78.48
2023-06-07T02:07:50.432Z,78.50
2023-06-07T02:10:21.418Z,78.70
2023-06-07T02:12:51.748Z,79.32
2023-06-07T02:15:21.077Z,79.06
2023-06-07T02:17:58.572Z,78.70
2023-06-07T02:20:27.505Z,79.40
2023-06-07T02:22:56.083Z,79.16
2023-06-07T02:25:24.106Z,78.69
2023-06-07T02:27:52.640Z,78.86
2023-06-07T02:30:22.296Z,79.19
2023-06-07T02:32:50.887Z,78.91
2023-06-07T02:35:20.091Z,79.24
2023-06-07T02:37:48.196Z,78.95
2023-06-07T02:40:16.834Z,78.78
2023-06-07T02:42:48.233Z,78.89
2023-06-07T02:45:16.685Z,78.23
2023-06-07T02:47:46.550Z,78.71
2023-06-07T02:50:14.417Z,78.44
2023-06-07T02:52:42.712Z,78.95
2023-06-07T02:55:11.164Z,78.83
2023-06-07T02:57:38.919Z,78.88
2023-06-07T03:00:11.961Z,79.10
2023-06-07T03:02:40.087Z,79.15
2023-06-07T03:05:10.238Z,78.85
2023-06-07T03:07:38.135Z,78.35
2023-06-07T03:10:06.991Z,78.79
2023-06-07T03:12:35.064Z,78.97
2023-06-07T03:15:02.926Z,78.32
2023-06-07T03:17:32.398Z,78.72
2023-06-07T03:20:00.245Z,78.38
2023-06-07T03:22:29.530Z,78.74
2023-06-07T03:24:58.515Z,78.91
2023-06-07T03:27:28.728Z,79.15
2023-06-07T03:29:57.440Z,78.58
2023-06-07T03:32:25.257Z,79.09
2023-06-07T03:34:53.574Z,78.74
2023-06-07T03:37:21.532Z,78.58
2023-06-07T03:39:51.035Z,78.74
2023-06-07T03:42:18.916Z,78.64
2023-06-07T03:44:50.596Z,78.68
2023-06-07T03:47:18.388Z,79.33
2023-06-07T03:49:46.084Z,78.82
2023-06-07T03:52:13.944Z,79.22
2023-06-07T03:54:41.827Z,78.73
2023-06-07T03:57:11.599Z,78.60
2023-06-07T03:59:39.409Z,78.98
2023-06-07T04:02:08.180Z,78.43
2023-06-07T04:04:36.174Z,78.91
2023-06-07T04:07:04.424Z,78.27
2023-06-07T04:09:32.351Z,78.60
2023-06-07T04:12:00.127Z,77.84
2023-06-07T04:14:29.424Z,78.29
2023-06-07T04:16:57.317Z,77.85
2023-06-07T04:19:25.235Z,78.44
2023-06-07T04:21:53.863Z,78.44
2023-06-07T04:24:21.669Z,78.19
2023-06-07T04:26:50.938Z,78.32
2023-06-07T04:29:21.996Z,78.11
2023-06-07T04:31:53.761Z,77.94
2023-06-07T04:34:22.853Z,77.79
2023-06-07T04:36:51.367Z,77.74
2023-06-07T04:39:21.633Z,77.28
2023-06-07T04:41:50.263Z,77.08
2023-06-07T04:44:30.049Z,77.45
2023-06-07T04:47:06.605Z,77.89
2023-06-07T04:49:39.658Z,78.50
2023-06-07T04:52:08.480Z,76.81
2023-06-07T04:54:37.926Z,77.29
2023-06-07T04:57:07.925Z,76.63
2023-06-07T04:59:42.788Z,76.73
2023-06-07T05:02:12.655Z,76.98
2023-06-07T05:04:41.613Z,75.94
2023-06-07T05:07:10.191Z,77.56
2023-06-07T05:09:38.787Z,76.99
2023-06-07T05:12:07.800Z,76.50
2023-06-07T05:14:35.819Z,76.62
2023-06-07T05:17:03.780Z,76.12
2023-06-07T05:19:33.575Z,76.19
2023-06-07T05:22:01.554Z,75.30
2023-06-07T05:24:29.614Z,74.39
2023-06-07T05:26:57.556Z,74.60
2023-06-07T05:29:25.482Z,73.91
2023-06-07T05:31:53.521Z,73.18
2023-06-07T05:34:21.603Z,72.28
2023-06-07T05:36:52.527Z,72.50
2023-06-07T05:39:20.742Z,72.67
2023-06-07T05:41:48.684Z,70.93
2023-06-07T05:44:16.634Z,70.49
2023-06-07T05:46:44.578Z,70.30
2023-06-07T05:49:12.625Z,68.36
2023-06-07T05:51:40.787Z,67.32
2023-06-07T05:54:10.063Z,65.44
2023-06-07T05:56:37.954Z,64.99
2023-06-07T05:59:06.124Z,63.66
2023-06-07T06:01:35.979Z,62.11
2023-06-07T06:04:04.402Z,61.33
2023-06-07T06:06:32.232Z,60.56
2023-06-07T06:09:00.114Z,59.03
2023-06-07T06:11:29.431Z,57.95
2023-06-07T06:13:57.306Z,57.69
2023-06-07T06:16:25.163Z,54.90
2023-06-07T06:18:53.015Z,52.45
2023-06-07T06:21:21.029Z,50.67
2023-06-07T06:23:50.086Z,49.55
2023-06-07T06:26:19.621Z,50.29
2023-06-07T06:28:49.039Z,49.92
2023-06-07T06:31:17.940Z,50.43
2023-06-07T06:33:47.499Z,49.09
2023-06-07T06:36:15.322Z,46.82
2023-06-07T06:38:43.174Z,45.46
2023-06-07T06:41:11.231Z,44.95
2023-06-07T06:43:39.410Z,44.44
2023-06-07T06:46:08.783Z,44.49
2023-06-07T06:48:38.726Z,45.39
2023-06-07T06:51:06.604Z,45.37
2023-06-07T06:53:34.669Z,44.95
2023-06-07T06:56:02.676Z,45.56
2023-06-07T06:58:32.109Z,44.87
2023-06-07T07:01:00.162Z,44.30
2023-06-07T07:03:29.464Z,44.28
2023-06-07T07:05:57.338Z,44.62
2023-06-07T07:08:25.798Z,44.36
2023-06-07T07:10:53.915Z,44.48
2023-06-07T07:13:22.052Z,43.16
2023-06-07T07:15:50.066Z,42.86
2023-06-07T07:18:18.265Z,43.16
2023-06-07T07:20:48.059Z,40.94
2023-06-07T07:23:16.092Z,40.59
2023-06-07T07:25:43.947Z,40.93
2023-06-07T07:28:11.909Z,41.44
2023-06-07T07:30:39.952Z,42.17
2023-06-07T07:33:07.799Z,42.43
2023-06-07T07:35:36.708Z,42.66
2023-06-07T07:38:06.430Z,42.97
2023-06-07T07:40:34.450Z,42.18
2023-06-07T07:43:02.428Z,41.91
2023-06-07T07:45:30.272Z,40.65
2023-06-07T07:47:58.181Z,41.31
2023-06-07T07:50:26.251Z,40.73
2023-06-07T07:52:56.081Z,40.39
2023-06-07T07:55:26.170Z,40.39
2023-06-07T07:57:54.059Z,41.90
2023-06-07T08:00:22.771Z,40.79
2023-06-07T08:02:50.727Z,40.57
2023-06-07T08:05:18.675Z,40.79
2023-06-07T08:07:46.618Z,40.89
2023-06-07T08:10:14.536Z,41.07
2023-06-07T08:12:44.182Z,41.97
2023-06-07T08:15:12.874Z,41.14
2023-06-07T08:17:41.642Z,41.65
2023-06-07T08:20:10.709Z,40.41
2023-06-07T08:22:39.270Z,41.12
2023-06-07T08:25:08.357Z,42.20
2023-06-07T08:27:36.697Z,41.93
2023-06-07T08:30:07.615Z,43.70
2023-06-07T08:32:36.442Z,44.33
2023-06-07T08:35:04.989Z,44.45
2023-06-07T08:37:33.748Z,45.34
2023-06-07T08:40:01.732Z,45.39
2023-06-07T08:42:29.818Z,44.33
2023-06-07T08:44:57.906Z,43.92
2023-06-07T08:47:29.245Z,44.65
2023-06-07T08:49:58.903Z,44.40
2023-06-07T08:52:27.553Z,45.16
2023-06-07T08:55:00.352Z,44.57
2023-06-07T08:57:32.159Z,43.68
2023-06-07T09:00:01.533Z,43.76
2023-06-07T09:02:31.162Z,43.00
2023-06-07T09:05:02.775Z,44.18
2023-06-07T09:07:30.649Z,44.86
2023-06-07T09:09:58.553Z,44.43
2023-06-07T09:12:26.409Z,44.40
2023-06-07T09:14:55.677Z,45.25
2023-06-07T09:17:24.185Z,45.79
2023-06-07T09:19:53.641Z,46.14
2023-06-07T09:22:26.864Z,45.64
2023-06-07T09:24:55.868Z,45.48
2023-06-07T09:27:31.430Z,44.91
2023-06-07T09:30:05.866Z,46.28
2023-06-07T09:32:38.514Z,45.60
2023-06-07T09:35:15.372Z,45.86
2023-06-07T09:37:44.685Z,46.22
2023-06-07T09:40:14.728Z,45.07
2023-06-07T09:42:43.064Z,44.97
2023-06-07T09:45:14.799Z,43.98
2023-06-07T09:47:43.959Z,44.17
2023-06-07T09:50:15.293Z,44.58
2023-06-07T09:52:43.190Z,44.90
2023-06-07T09:55:28.596Z,45.32
2023-06-07T09:57:57.612Z,45.02
2023-06-07T10:00:27.413Z,46.08
2023-06-07T10:03:06.774Z,45.30
2023-06-07T10:05:37.195Z,45.87
2023-06-07T10:08:06.449Z,45.68
2023-06-07T10:10:36.047Z,45.58
2023-06-07T10:13:06.681Z,44.38
2023-06-07T10:15:36.653Z,44.13
2023-06-07T10:18:14.651Z,45.47
2023-06-07T10:20:52.625Z,44.97
2023-06-07T10:23:30.357Z,44.83
2023-06-07T10:26:01.587Z,45.10
2023-06-07T10:28:34.493Z,44.59
2023-06-07T10:31:07.190Z,44.72
2023-06-07T10:33:35.894Z,44.89
2023-06-07T10:36:08.892Z,43.87
2023-06-07T10:38:37.439Z,44.40
2023-06-07T10:41:07.142Z,44.03
2023-06-07T10:43:36.090Z,44.40
2023-06-07T10:46:19.295Z,44.56
2023-06-07T10:48:48.140Z,44.66
2023-06-07T10:51:18.162Z,44.97
2023-06-07T10:53:53.701Z,44.32
2023-06-07T10:56:29.230Z,44.14
2023-06-07T10:58:59.059Z,43.52
2023-06-07T11:01:28.066Z,43.56
2023-06-07T11:03:56.296Z,43.91
2023-06-07T11:06:25.953Z,44.23
2023-06-07T11:09:20.409Z,44.51
2023-06-07T11:11:48.436Z,44.85
2023-06-07T11:14:16.514Z,44.02
2023-06-07T11:16:44.698Z,44.07
2023-06-07T11:19:14.897Z,44.56
2023-06-07T11:22:09.093Z,44.14
2023-06-07T11:24:39.076Z,43.83
2023-06-07T11:27:15.382Z,43.46
2023-06-07T11:29:44.819Z,45.21
2023-06-07T11:32:13.112Z,44.03
2023-06-07T11:34:41.195Z,44.25
2023-06-07T11:37:17.592Z,44.26
2023-06-07T11:39:46.584Z,44.62
2023-06-07T11:42:14.659Z,43.97
2023-06-07T11:44:43.571Z,44.12
2023-06-07T11:47:11.876Z,44.93
2023-06-07T11:49:43.212Z,44.62
2023-06-07T11:52:11.200Z,44.60
2023-06-07T11:54:46.448Z,44.62
2023-06-07T11:57:14.911Z,45.08
2023-06-07T11:59:44.072Z,44.85
2023-06-07T12:02:13.124Z,44.96
2023-06-07T12:04:45.466Z,45.91
2023-06-07T12:07:22.433Z,44.78
2023-06-07T12:09:54.585Z,45.43
2023-06-07T12:12:24.668Z,45.25
2023-06-07T12:15:01.492Z,44.80
2023-06-07T12:17:35.603Z,44.79
2023-06-07T12:20:10.613Z,44.65
2023-06-07T12:22:38.562Z,44.91
2023-06-07T12:25:15.139Z,44.67
2023-06-07T12:27:46.640Z,45.05
2023-06-07T12:30:14.729Z,45.06
2023-06-07T12:32:44.491Z,44.22
2023-06-07T12:35:13.651Z,44.73
2023-06-07T12:37:41.934Z,45.48
2023-06-07T12:40:11.763Z,45.23
2023-06-07T12:42:41.560Z,44.59
2023-06-07T12:45:10.861Z,44.46
2023-06-07T12:47:38.926Z,45.08
2023-06-07T12:50:07.547Z,44.94
2023-06-07T12:52:35.600Z,45.14
2023-06-07T12:55:04.047Z,44.43
2023-06-07T12:57:33.661Z,44.64
2023-06-07T13:00:01.555Z,44.56
2023-06-07T13:02:30.194Z,44.50
2023-06-07T13:04:58.174Z,44.90
2023-06-07T13:07:26.254Z,45.10
2023-06-07T13:09:54.170Z,44.76
2023-06-07T13:12:22.072Z,45.04
2023-06-07T13:14:51.309Z,44.56
2023-06-07T13:17:19.429Z,44.56
2023-06-07T13:19:47.677Z,44.89
2023-06-07T13:22:15.747Z,45.91
2023-06-07T13:24:44.010Z,45.19
2023-06-07T13:27:11.974Z,45.13
2023-06-07T13:29:40.331Z,44.91
2023-06-07T13:32:10.330Z,44.98
2023-06-07T13:34:38.318Z,45.42
2023-06-07T13:37:06.707Z,45.40
2023-06-07T13:39:35.196Z,45.16
2023-06-07T13:42:04.938Z,44.88
2023-06-07T13:44:32.718Z,45.31
2023-06-07T13:47:04.284Z,44.96
2023-06-07T13:49:34.896Z,45.80
2023-06-07T13:52:03.393Z,45.08
2023-06-07T13:54:33.202Z,45.04
2023-06-07T13:57:01.688Z,45.57
2023-06-07T13:59:30.145Z,44.82
2023-06-07T14:01:58.759Z,44.47
2023-06-07T14:04:28.110Z,45.09
2023-06-07T14:06:57.523Z,44.88
2023-06-07T14:09:25.514Z,44.60
2023-06-07T14:11:53.407Z,44.73
2023-06-07T14:14:21.599Z,44.14
2023-06-07T14:16:50.509Z,44.20
2023-06-07T14:19:18.502Z,44.23
2023-06-07T14:21:46.492Z,44.63
2023-06-07T14:24:15.959Z,45.44
2023-06-07T14:26:44.267Z,44.84
2023-06-07T14:29:12.237Z,45.34
2023-06-07T14:31:41.074Z,44.68
2023-06-07T14:34:09.041Z,44.25
2023-06-07T14:36:37.534Z,44.57
2023-06-07T14:39:06.351Z,44.51
2023-06-07T14:41:35.705Z,44.26
2023-06-07T14:44:03.919Z,45.91
2023-06-07T14:46:31.789Z,45.37
2023-06-07T14:48:59.716Z,45.36
2023-06-07T14:51:31.111Z,45.41
2023-06-07T14:53:59.004Z,45.17
2023-06-07T14:56:28.161Z,46.31
2023-06-07T14:58:57.546Z,45.97
2023-06-07T15:01:26.396Z,46.75
2023-06-07T15:03:55.666Z,46.38
2023-06-07T15:06:23.608Z,46.89
2023-06-07T15:08:54.593Z,45.71
2023-06-07T15:11:22.708Z,45.35
2023-06-07T15:13:50.669Z,45.88
2023-06-07T15:16:20.167Z,45.21
2023-06-07T15:18:47.970Z,45.07
2023-06-07T15:21:15.720Z,45.36
2023-06-07T15:23:43.756Z,45.12
2023-06-07T15:26:11.846Z,45.34
2023-06-07T15:28:39.778Z,45.30
2023-06-07T15:31:07.748Z,45.34
2023-06-07T15:33:36.999Z,46.56
2023-06-07T15:36:08.422Z,46.91
2023-06-07T15:38:38.835Z,46.40
2023-06-07T15:43:44.096Z,47.23
2023-06-07T15:46:13.150Z,46.54
2023-06-07T15:48:49.015Z,46.74
2023-06-07T15:51:17.109Z,46.46
2023-06-07T15:53:47.573Z,46.89
2023-06-07T15:56:15.712Z,47.06
2023-06-07T15:58:44.100Z,47.29
2023-06-07T16:01:12.333Z,46.84
2023-06-07T16:03:54.928Z,47.41
2023-06-07T16:06:26.275Z,47.73
2023-06-07T16:08:54.378Z,47.31
2023-06-07T16:11:22.795Z,47.77
2023-06-07T16:13:50.786Z,47.27
2023-06-07T16:16:19.282Z,48.06
2023-06-07T16:18:48.430Z,48.09
2023-06-07T16:21:17.835Z,47.35
2023-06-07T16:23:47.272Z,46.87
2023-06-07T16:26:15.522Z,47.17
2023-06-07T16:28:43.650Z,48.35
2023-06-07T16:31:11.620Z,47.22
2023-06-07T16:33:39.555Z,47.63
2023-06-07T16:36:08.674Z,48.01
2023-06-07T16:38:37.013Z,47.65
2023-06-07T16:41:09.266Z,47.61
2023-06-07T16:43:40.562Z,48.03
2023-06-07T16:46:18.979Z,47.94
2023-06-07T16:48:47.065Z,48.63
2023-06-07T16:51:15.096Z,48.69
2023-06-07T16:53:43.312Z,48.33
2023-06-07T16:56:12.905Z,49.21
2023-06-07T16:58:41.224Z,50.09
2023-06-07T17:01:10.140Z,51.26
2023-06-07T17:03:38.293Z,50.68
2023-06-07T17:06:07.398Z,50.34
2023-06-07T17:08:35.552Z,50.52
2023-06-07T17:11:06.252Z,50.06
2023-06-07T17:13:36.200Z,49.76
2023-06-07T17:16:04.298Z,49.86
2023-06-07T17:18:32.328Z,50.27
2023-06-07T17:21:00.284Z,49.68
2023-06-07T17:23:28.309Z,49.47
2023-06-07T17:25:56.388Z,49.93
2023-06-07T17:28:24.357Z,49.87
2023-06-07T17:30:54.109Z,50.87
2023-06-07T17:33:22.191Z,50.64
2023-06-07T17:35:50.188Z,50.37
2023-06-07T17:38:18.822Z,51.14
2023-06-07T17:40:47.092Z,51.31
2023-06-07T17:43:15.862Z,51.79
2023-06-07T17:45:43.897Z,51.97
2023-06-07T17:48:14.871Z,52.08
2023-06-07T17:50:46.881Z,52.53
2023-06-07T17:53:15.872Z,52.02
2023-06-07T17:55:53.445Z,52.39
2023-06-07T17:58:21.724Z,53.02
2023-06-07T18:00:50.967Z,53.08
2023-06-07T18:03:21.416Z,53.50
2023-06-07T18:05:49.577Z,54.38
2023-06-07T18:08:17.455Z,54.23
2023-06-07T18:10:45.542Z,54.20
2023-06-07T18:13:13.431Z,54.62
2023-06-07T18:15:41.522Z,55.38
2023-06-07T18:18:09.647Z,55.25
2023-06-07T18:20:38.961Z,55.85
2023-06-07T18:23:07.029Z,55.42
2023-06-07T18:25:34.951Z,55.22
2023-06-07T18:28:02.886Z,55.77
2023-06-07T18:30:30.902Z,56.23
2023-06-07T18:32:58.905Z,55.48
2023-06-07T18:35:26.980Z,56.23
2023-06-07T18:37:56.699Z,57.02
2023-06-07T18:40:24.796Z,58.12
2023-06-07T18:42:52.688Z,58.65
2023-06-07T18:45:20.714Z,59.11
2023-06-07T18:47:48.713Z,59.49
2023-06-07T18:50:17.992Z,60.13
2023-06-07T18:52:46.048Z,59.14
2023-06-07T18:55:15.553Z,59.93
2023-06-07T18:57:43.668Z,60.17
2023-06-07T19:00:12.491Z,60.56
2023-06-07T19:02:40.761Z,61.16
2023-06-07T19:05:09.641Z,61.14
2023-06-07T19:07:38.071Z,60.51
2023-06-07T19:10:07.072Z,60.81
2023-06-07T19:12:36.682Z,59.50
2023-06-07T19:15:06.656Z,59.58
2023-06-07T19:17:35.069Z,60.03
2023-06-07T19:20:03.473Z,59.78
2023-06-07T19:22:31.590Z,60.37
2023-06-07T19:24:59.593Z,60.10
2023-06-07T19:27:30.477Z,60.47
2023-06-07T19:29:59.834Z,60.64
2023-06-07T19:32:30.638Z,60.96
2023-06-07T19:34:59.078Z,61.84
2023-06-07T19:37:27.392Z,61.58
2023-06-07T19:39:58.145Z,61.54
2023-06-07T19:42:27.799Z,61.50
2023-06-07T19:44:55.957Z,61.62
2023-06-07T19:47:25.785Z,61.60
2023-06-07T19:49:53.952Z,62.11
2023-06-07T19:52:22.016Z,61.96
2023-06-07T19:54:50.692Z,62.02
2023-06-07T19:57:19.171Z,61.92
2023-06-07T19:59:50.136Z,61.80
2023-06-07T20:02:20.712Z,62.32
2023-06-07T20:04:50.657Z,62.52
2023-06-07T20:07:18.953Z,62.17
2023-06-07T20:09:47.490Z,62.46
2023-06-07T20:12:15.640Z,62.16
2023-06-07T20:14:43.667Z,62.38
2023-06-07T20:17:12.240Z,62.31
2023-06-07T20:19:40.460Z,62.23
2023-06-07T20:22:10.208Z,62.88
2023-06-07T20:24:38.170Z,62.86
2023-06-07T20:27:06.737Z,63.03
2023-06-07T20:29:34.940Z,63.34
2023-06-07T20:32:03.075Z,63.41
2023-06-07T20:34:31.267Z,63.73
2023-06-07T20:36:59.135Z,64.26
2023-06-07T20:39:28.504Z,64.17
2023-06-07T20:41:57.523Z,63.75
2023-06-07T20:44:30.927Z,64.02
2023-06-07T20:47:08.162Z,64.09
2023-06-07T20:49:36.276Z,64.40
2023-06-07T20:52:04.390Z,64.82
2023-06-07T20:54:33.963Z,65.74
2023-06-07T20:57:01.912Z,66.07
2023-06-07T20:59:32.066Z,66.17
2023-06-07T21:02:01.440Z,66.66
2023-06-07T21:04:29.559Z,66.84
2023-06-07T21:06:58.826Z,67.30
2023-06-07T21:09:27.047Z,68.63
2023-06-07T21:11:56.837Z,69.96
2023-06-07T21:14:24.682Z,69.81
2023-06-07T21:16:52.704Z,69.64
2023-06-07T21:19:20.761Z,67.53
2023-06-07T21:21:48.721Z,67.68
2023-06-07T21:24:16.749Z,67.95
2023-06-07T21:26:44.964Z,67.70
2023-06-07T21:29:14.677Z,68.20
2023-06-07T21:31:43.563Z,69.81
2023-06-07T21:34:13.982Z,69.88
2023-06-07T21:36:42.674Z,70.62
2023-06-07T21:39:12.173Z,71.10
2023-06-07T21:41:43.582Z,71.06
2023-06-07T21:44:11.864Z,71.94
2023-06-07T21:46:41.400Z,71.84
2023-06-07T21:49:09.611Z,72.58
2023-06-07T21:51:40.611Z,71.76
2023-06-07T21:54:09.234Z,71.34
2023-06-07T21:56:42.507Z,71.89
2023-06-07T21:59:11.204Z,72.07
2023-06-07T22:01:42.319Z,72.00
2023-06-07T22:04:10.656Z,71.48
2023-06-07T22:06:44.679Z,71.57
2023-06-07T22:09:15.315Z,72.00
2023-06-07T22:11:46.645Z,72.56
2023-06-07T22:14:15.549Z,73.03
2023-06-07T22:16:51.316Z,73.15
2023-06-07T22:19:20.953Z,73.53
2023-06-07T22:21:49.761Z,73.27
2023-06-07T22:24:19.184Z,73.19
2023-06-07T22:26:50.189Z,73.73
2023-06-07T22:29:18.823Z,73.99
2023-06-07T22:31:48.744Z,73.76
2023-06-07T22:34:19.291Z,73.07
2023-06-07T22:36:50.452Z,73.33
2023-06-07T22:39:21.224Z,73.13
2023-06-07T22:41:53.241Z,72.95
2023-06-07T22:44:21.607Z,72.54
2023-06-07T22:46:52.677Z,72.50
2023-06-07T22:49:23.824Z,72.89
2023-06-07T22:51:54.629Z,73.61
2023-06-07T22:54:28.852Z,73.61
2023-06-07T22:56:58.496Z,74.34
2023-06-07T22:59:26.879Z,74.55
2023-06-07T23:02:00.769Z,74.61
2023-06-07T23:04:29.172Z,74.79
2023-06-07T23:06:59.425Z,74.79
2023-06-07T23:09:27.987Z,75.14
2023-06-07T23:12:00.368Z,74.86
2023-06-07T23:14:29.659Z,74.35
2023-06-07T23:17:02.456Z,75.00
2023-06-07T23:19:30.849Z,74.82
2023-06-07T23:21:59.973Z,75.39
2023-06-07T23:24:31.116Z,75.38
2023-06-07T23:27:00.318Z,75.37
2023-06-07T23:29:28.982Z,75.56
2023-06-07T23:31:59.300Z,75.76
2023-06-07T23:34:28.893Z,75.54
2023-06-07T23:36:57.005Z,75.92
2023-06-07T23:39:25.208Z,76.24
2023-06-07T23:41:55.885Z,75.93
2023-06-07T23:44:27.505Z,76.32
2023-06-07T23:46:56.968Z,76.13
2023-06-07T23:49:35.910Z,76.25
2023-06-07T23:52:06.157Z,75.80
2023-06-07T23:54:36.928Z,76.15
2023-06-07T23:57:10.795Z,76.04
2023-06-07T23:59:41.194Z,75.87
